Time;durP1;ratioP1;P1;durP2;ratioP2;P2;SDS_P1;SDS_P2;PMS_P1;PMS_P2;Temp;Humidity;BMP_temperature;BMP_pressure;BME280_temperature;BME280_humidity;BME280_pressure;Samples;Min_cycle;Max_cycle;Signal;HPM_P1;HPM_P2
2024/04/13 00:00:11;;;;;;;2.05;1.80;;;16.50;99.90;;;;;;5453860;26;20263;-74
2024/04/13 00:02:39;;;;;;;2.90;1.90;;;16.50;99.90;;;;;;5454195;26;20328;-72
2024/04/13 00:05:10;;;;;;;2.00;1.90;;;16.50;99.90;;;;;;5453549;26;20259;-73
2024/04/13 00:07:36;;;;;;;2.83;2.10;;;16.50;99.90;;;;;;5453839;26;20216;-73
2024/04/13 00:10:05;;;;;;;3.20;1.92;;;16.50;99.90;;;;;;5454008;26;20600;-73
2024/04/13 00:12:41;;;;;;;2.05;1.95;;;16.50;99.90;;;;;;5453802;26;20757;-72
2024/04/13 00:15:10;;;;;;;1.98;1.88;;;16.40;99.90;;;;;;5453719;26;20320;-74
2024/04/13 00:17:37;;;;;;;2.05;1.90;;;16.40;99.90;;;;;;5453682;26;20536;-74
2024/04/13 00:20:10;;;;;;;1.90;1.80;;;16.30;99.90;;;;;;5453856;26;20285;-73
2024/04/13 00:22:39;;;;;;;1.65;1.63;;;16.40;99.90;;;;;;5453871;26;20781;-73
2024/04/13 00:25:08;;;;;;;1.90;1.80;;;16.40;99.90;;;;;;5453446;26;20320;-73
2024/04/13 00:27:34;;;;;;;1.65;1.55;;;16.30;99.90;;;;;;5453455;26;20649;-73
2024/04/13 00:30:09;;;;;;;1.80;1.70;;;16.30;99.90;;;;;;5453756;26;20224;-73
2024/04/13 00:32:35;;;;;;;1.90;1.80;;;16.30;99.90;;;;;;5453471;26;20215;-73
2024/04/13 00:35:05;;;;;;;1.90;1.80;;;16.30;99.90;;;;;;5453184;26;20220;-73
2024/04/13 00:37:31;;;;;;;1.85;1.70;;;16.30;99.90;;;;;;5453144;26;20556;-73
2024/04/13 00:40:05;;;;;;;1.55;1.55;;;16.30;99.90;;;;;;5453219;26;20263;-73
2024/04/13 00:42:31;;;;;;;1.88;1.70;;;16.20;99.90;;;;;;5452321;26;20215;-73
2024/04/13 00:45:04;;;;;;;1.83;1.73;;;16.20;99.90;;;;;;5453837;26;20255;-73
2024/04/13 00:47:34;;;;;;;1.90;1.80;;;16.20;99.90;;;;;;5453199;26;20219;-73
2024/04/13 00:50:11;;;;;;;1.98;1.88;;;16.20;99.90;;;;;;5453273;26;20265;-73
2024/04/13 00:52:38;;;;;;;3.15;1.77;;;16.20;99.90;;;;;;5453477;26;20266;-73
2024/04/13 00:55:08;;;;;;;1.98;1.88;;;16.20;99.90;;;;;;5452956;26;20411;-73
2024/04/13 00:57:38;;;;;;;2.92;1.60;;;16.20;99.90;;;;;;5453416;26;20271;-73
2024/04/13 01:00:12;;;;;;;1.88;1.42;;;16.20;99.90;;;;;;5453077;26;20255;-73
2024/04/13 01:02:43;;;;;;;1.38;1.38;;;16.10;99.90;;;;;;5453071;26;20263;-73
2024/04/13 01:05:13;;;;;;;1.67;1.58;;;16.10;99.90;;;;;;5452161;26;20337;-73
2024/04/13 01:07:40;;;;;;;1.50;1.40;;;16.10;99.90;;;;;;5452524;26;20223;-73
2024/04/13 01:10:11;;;;;;;1.27;1.20;;;16.10;99.90;;;;;;5452443;26;20254;-73
2024/04/13 01:12:39;;;;;;;2.00;1.90;;;16.10;99.90;;;;;;5452681;26;20254;-73
2024/04/13 01:15:08;;;;;;;1.58;1.58;;;16.10;99.90;;;;;;5452651;26;20227;-73
2024/04/13 01:17:36;;;;;;;1.38;1.38;;;16.10;99.90;;;;;;5452578;26;20220;-73
2024/04/13 01:20:08;;;;;;;1.50;1.40;;;16.10;99.90;;;;;;5452505;26;20266;-72
2024/04/13 01:22:43;;;;;;;1.73;1.48;;;16.10;99.90;;;;;;5452385;26;20228;-73
2024/04/13 01:25:15;;;;;;;1.77;1.65;;;16.00;99.90;;;;;;5452119;26;20679;-74
2024/04/13 01:27:42;;;;;;;1.75;1.65;;;16.00;99.90;;;;;;5451783;26;20220;-73
2024/04/13 01:30:12;;;;;;;1.30;1.30;;;16.00;99.90;;;;;;5452035;26;20692;-73
2024/04/13 01:32:39;;;;;;;1.48;1.40;;;16.00;99.90;;;;;;5451880;26;20228;-73
2024/04/13 01:35:11;;;;;;;1.58;1.52;;;16.00;99.90;;;;;;5451434;26;20223;-73
2024/04/13 01:37:37;;;;;;;1.63;1.52;;;16.00;99.90;;;;;;5452158;26;20232;-73
2024/04/13 01:40:07;;;;;;;1.92;1.70;;;15.90;99.90;;;;;;5452180;26;20223;-73
2024/04/13 01:42:37;;;;;;;1.67;1.58;;;15.90;99.90;;;;;;5452186;26;20666;-73
2024/04/13 01:45:07;;;;;;;1.60;1.60;;;15.80;99.90;;;;;;5452251;26;20255;-73
2024/04/13 01:47:33;;;;;;;2.83;1.60;;;15.80;99.90;;;;;;5451837;26;20216;-73
2024/04/13 01:50:07;;;;;;;1.75;1.65;;;15.80;99.90;;;;;;5451515;26;20656;-73
2024/04/13 01:52:38;;;;;;;2.13;2.00;;;15.70;99.90;;;;;;5451749;26;20546;-73
2024/04/13 01:55:07;;;;;;;1.70;1.55;;;15.70;99.90;;;;;;5454986;26;20683;-73
2024/04/13 01:57:35;;;;;;;1.30;1.30;;;15.70;99.90;;;;;;5455288;26;20706;-73
2024/04/13 02:00:04;;;;;;;1.40;1.40;;;15.70;99.90;;;;;;5455520;26;20224;-73
2024/04/13 02:02:30;;;;;;;1.88;1.77;;;15.70;99.90;;;;;;5455769;26;20532;-73
2024/04/13 02:04:59;;;;;;;1.63;1.52;;;15.70;99.90;;;;;;5455481;26;20223;-73
2024/04/13 02:07:25;;;;;;;1.88;1.50;;;15.70;99.90;;;;;;5455305;26;20247;-73
2024/04/13 02:09:54;;;;;;;2.10;1.63;;;15.60;99.90;;;;;;5455291;26;20220;-73
2024/04/13 02:12:21;;;;;;;1.70;1.60;;;15.60;99.90;;;;;;5455000;26;20346;-74
2024/04/13 02:14:59;;;;;;;1.42;1.42;;;15.60;99.90;;;;;;5454747;26;20224;-73
2024/04/13 02:17:47;;;;;;;1.90;1.80;;;15.60;99.90;;;;;;5455301;26;20216;-73
2024/04/13 02:20:25;;;;;;;1.70;1.65;;;15.60;99.90;;;;;;5454869;26;20258;-73
2024/04/13 02:23:04;;;;;;;1.88;1.77;;;15.50;99.90;;;;;;5454685;26;20235;-73
2024/04/13 02:25:36;;;;;;;1.63;1.52;;;15.50;99.90;;;;;;5455264;26;20223;-73
2024/04/13 02:28:02;;;;;;;1.73;1.63;;;15.50;99.90;;;;;;5454466;26;20554;-73
2024/04/13 02:30:33;;;;;;;1.85;1.75;;;15.50;99.90;;;;;;5455187;26;20220;-73
2024/04/13 02:33:00;;;;;;;1.70;1.60;;;15.50;99.90;;;;;;5455186;26;20251;-73
2024/04/13 02:35:29;;;;;;;1.85;1.73;;;15.50;99.90;;;;;;5454599;26;20228;-72
2024/04/13 02:37:55;;;;;;;1.63;1.52;;;15.50;99.90;;;;;;5454355;26;20224;-73
2024/04/13 02:40:24;;;;;;;3.15;2.22;;;15.40;99.90;;;;;;5454546;26;20220;-73
2024/04/13 02:42:50;;;;;;;1.70;1.60;;;15.40;99.90;;;;;;5454785;26;20219;-73
2024/04/13 02:45:19;;;;;;;1.95;1.80;;;15.40;99.90;;;;;;5454759;26;20212;-73
2024/04/13 02:47:48;;;;;;;2.05;1.77;;;15.40;99.90;;;;;;5454743;26;20215;-73
2024/04/13 02:50:21;;;;;;;2.05;1.85;;;15.40;99.90;;;;;;5454356;26;20768;-73
2024/04/13 02:52:47;;;;;;;2.00;1.90;;;15.40;99.90;;;;;;5454501;26;20215;-73
2024/04/13 02:55:16;;;;;;;1.88;1.77;;;15.30;99.90;;;;;;5454376;26;20735;-74
2024/04/13 02:57:52;;;;;;;1.80;1.70;;;15.30;99.90;;;;;;5455020;26;20324;-74
2024/04/13 03:00:21;;;;;;;1.88;1.77;;;15.30;99.90;;;;;;5454536;26;20262;-73
2024/04/13 03:02:50;;;;;;;1.90;1.80;;;15.30;99.90;;;;;;5454917;26;20546;-73
2024/04/13 03:05:18;;;;;;;1.90;1.70;;;15.30;99.90;;;;;;5452920;26;20263;-73
2024/04/13 03:07:44;;;;;;;1.90;1.80;;;15.30;99.90;;;;;;5453935;26;20216;-73
2024/04/13 03:10:13;;;;;;;2.30;1.90;;;15.30;99.90;;;;;;5454991;26;20236;-73
2024/04/13 03:12:40;;;;;;;2.00;1.90;;;15.30;99.90;;;;;;5454115;26;20248;-73
2024/04/13 03:15:10;;;;;;;1.50;1.50;;;15.20;99.90;;;;;;5454057;26;20270;-73
2024/04/13 03:17:37;;;;;;;2.40;2.30;;;15.30;99.90;;;;;;5454134;26;20258;-73
2024/04/13 03:20:09;;;;;;;2.13;1.92;;;15.20;99.90;;;;;;5453972;26;20220;-73
2024/04/13 03:22:35;;;;;;;2.00;1.90;;;15.20;99.90;;;;;;5454119;26;20220;-73
2024/04/13 03:25:05;;;;;;;3.28;1.95;;;15.20;99.90;;;;;;5454087;26;20223;-73
2024/04/13 03:27:33;;;;;;;2.15;2.00;;;15.20;99.90;;;;;;5454276;26;20576;-73
2024/04/13 03:30:01;;;;;;;3.10;1.80;;;15.20;99.90;;;;;;5453915;26;20272;-73
2024/04/13 03:32:27;;;;;;;2.67;1.80;;;15.20;99.90;;;;;;5454451;26;20216;-73
2024/04/13 03:34:56;;;;;;;1.90;1.80;;;15.10;99.90;;;;;;5454132;26;20753;-73
2024/04/13 03:37:25;;;;;;;2.15;2.05;;;15.10;99.90;;;;;;5454276;26;20236;-72
2024/04/13 03:39:58;;;;;;;2.22;2.13;;;15.00;99.90;;;;;;5454057;26;20212;-73
2024/04/13 03:42:27;;;;;;;2.13;2.03;;;15.00;99.90;;;;;;5453617;26;20290;-73
2024/04/13 03:44:53;;;;;;;2.50;2.30;;;15.00;99.90;;;;;;5451882;26;20373;-73
2024/04/13 03:47:22;;;;;;;2.40;2.22;;;15.10;99.90;;;;;;5453238;26;20219;-74
2024/04/13 03:49:48;;;;;;;2.13;2.03;;;15.20;99.90;;;;;;5453771;26;20216;-73
2024/04/13 03:52:16;;;;;;;4.15;2.42;;;15.10;99.90;;;;;;5453413;26;20280;-73
2024/04/13 03:54:46;;;;;;;2.28;2.10;;;15.10;99.90;;;;;;5453477;26;20216;-73
2024/04/13 03:57:16;;;;;;;2.40;2.20;;;15.00;99.90;;;;;;5453432;26;20219;-73
2024/04/13 03:59:55;;;;;;;2.25;2.05;;;15.00;99.90;;;;;;5453668;26;20310;-74
2024/04/13 04:02:23;;;;;;;2.60;2.20;;;15.00;99.90;;;;;;5453441;26;20320;-72
2024/04/13 04:04:49;;;;;;;2.17;2.08;;;14.90;99.90;;;;;;5453466;26;20220;-73
2024/04/13 04:07:18;;;;;;;2.97;2.58;;;14.90;99.90;;;;;;5453249;26;20602;-73
2024/04/13 04:09:47;;;;;;;4.53;2.55;;;14.90;99.90;;;;;;5453449;26;20220;-73
2024/04/13 04:12:15;;;;;;;2.00;1.90;;;14.80;99.90;;;;;;5453176;26;20255;-73
2024/04/13 04:14:49;;;;;;;3.05;1.92;;;14.80;99.90;;;;;;5453487;26;20262;-73
2024/04/13 04:17:19;;;;;;;2.67;2.03;;;14.80;99.90;;;;;;5453700;26;20455;-73
2024/04/13 04:19:44;;;;;;;2.42;2.10;;;14.70;99.90;;;;;;5452928;26;20219;-73
2024/04/13 04:22:13;;;;;;;3.80;2.42;;;14.70;99.90;;;;;;5453335;26;20405;-73
2024/04/13 04:24:39;;;;;;;2.17;2.08;;;14.70;99.90;;;;;;5452956;26;20351;-73
2024/04/13 04:27:10;;;;;;;2.33;2.22;;;14.70;99.90;;;;;;5453265;26;20224;-73
2024/04/13 04:29:36;;;;;;;2.65;2.13;;;14.60;99.90;;;;;;5452943;26;20223;-73
2024/04/13 04:32:05;;;;;;;1.95;1.85;;;14.60;99.90;;;;;;5452891;26;20266;-73
2024/04/13 04:34:31;;;;;;;2.35;1.90;;;14.60;99.90;;;;;;5452652;26;20251;-73
2024/04/13 04:36:59;;;;;;;2.92;2.15;;;14.60;99.90;;;;;;5452961;26;20232;-72
2024/04/13 04:39:26;;;;;;;4.82;2.15;;;14.60;99.90;;;;;;5453192;26;20255;-73
2024/04/13 04:41:54;;;;;;;2.30;2.17;;;14.60;99.90;;;;;;5452945;26;20540;-73
2024/04/13 04:44:25;;;;;;;2.20;2.10;;;14.60;99.90;;;;;;5452777;26;20216;-73
2024/04/13 04:46:53;;;;;;;3.15;2.35;;;14.60;99.90;;;;;;5453205;26;20208;-74
2024/04/13 04:49:19;;;;;;;2.47;2.10;;;14.60;99.90;;;;;;5452927;26;20265;-73
2024/04/13 04:51:48;;;;;;;3.92;2.35;;;14.60;99.90;;;;;;5453151;26;20272;-73
2024/04/13 04:54:14;;;;;;;2.40;2.20;;;14.50;99.90;;;;;;5452788;26;20258;-73
2024/04/13 04:56:42;;;;;;;2.15;2.05;;;14.50;99.90;;;;;;5452696;26;20220;-73
2024/04/13 04:59:08;;;;;;;2.90;2.28;;;14.50;99.90;;;;;;5452491;26;20270;-73
2024/04/13 05:01:44;;;;;;;5.35;2.60;;;14.50;99.90;;;;;;5452849;26;20224;-73
2024/04/13 05:04:10;;;;;;;3.92;2.50;;;14.50;99.90;;;;;;5453030;26;20566;-73
2024/04/13 05:06:39;;;;;;;2.70;2.50;;;14.50;99.90;;;;;;5452368;26;20227;-73
2024/04/13 05:09:07;;;;;;;2.60;2.45;;;14.50;99.90;;;;;;5452817;26;20312;-73
2024/04/13 05:11:38;;;;;;;2.85;2.45;;;14.50;99.90;;;;;;5452682;26;20265;-73
2024/04/13 05:14:10;;;;;;;2.28;2.17;;;14.50;99.90;;;;;;5452298;26;20216;-73
2024/04/13 05:16:39;;;;;;;2.75;2.55;;;14.40;99.90;;;;;;5452541;26;20250;-73
2024/04/13 05:19:07;;;;;;;3.53;2.40;;;14.40;99.90;;;;;;5452439;26;20216;-73
2024/04/13 05:21:36;;;;;;;2.38;2.28;;;14.40;99.90;;;;;;5452401;26;20617;-73
2024/04/13 05:24:02;;;;;;;2.55;2.35;;;14.40;99.90;;;;;;5452216;26;20251;-73
2024/04/13 05:26:31;;;;;;;2.72;2.50;;;14.40;99.90;;;;;;5452281;26;20224;-73
2024/04/13 05:28:57;;;;;;;2.42;2.22;;;14.40;99.90;;;;;;5453952;26;20220;-73
2024/04/13 05:31:26;;;;;;;2.67;2.58;;;14.40;99.90;;;;;;5455519;26;20515;-72
2024/04/13 05:33:52;;;;;;;3.92;3.67;;;14.40;99.90;;;;;;5455829;26;20223;-73
2024/04/13 05:36:24;;;;;;;5.15;4.60;;;14.40;99.90;;;;;;5455337;26;20270;-73
2024/04/13 05:38:50;;;;;;;3.70;3.05;;;14.30;99.90;;;;;;5455471;26;20324;-74
2024/04/13 05:41:18;;;;;;;3.47;3.20;;;14.30;99.90;;;;;;5455410;26;20232;-73
2024/04/13 05:43:44;;;;;;;3.42;2.90;;;14.30;99.90;;;;;;5455976;26;20239;-73
2024/04/13 05:46:13;;;;;;;2.90;2.67;;;14.30;99.90;;;;;;5455934;26;20306;-73
2024/04/13 05:48:43;;;;;;;3.05;2.80;;;14.30;99.90;;;;;;5455434;26;20216;-72
2024/04/13 05:51:12;;;;;;;4.03;2.72;;;14.30;99.90;;;;;;5455278;26;20266;-73
2024/04/13 05:53:43;;;;;;;3.17;2.92;;;14.30;99.90;;;;;;5455244;26;20300;-73
2024/04/13 05:56:12;;;;;;;4.30;4.00;;;14.30;99.90;;;;;;5455324;26;20224;-73
2024/04/13 05:58:38;;;;;;;3.20;2.90;;;14.30;99.90;;;;;;5455142;26;20223;-74
2024/04/13 06:01:13;;;;;;;6.43;2.42;;;14.30;99.90;;;;;;5455017;26;20683;-73
2024/04/13 06:03:39;;;;;;;3.45;2.65;;;14.30;99.90;;;;;;5455020;26;20262;-73
2024/04/13 06:06:08;;;;;;;2.90;2.70;;;14.30;99.90;;;;;;5454708;26;20691;-73
2024/04/13 06:08:34;;;;;;;3.42;3.13;;;14.30;99.90;;;;;;5455221;26;20270;-73
2024/04/13 06:11:06;;;;;;;2.35;2.25;;;14.30;99.90;;;;;;5454979;26;20336;-72
2024/04/13 06:13:32;;;;;;;2.95;2.72;;;14.40;99.90;;;;;;5454908;26;20374;-73
2024/04/13 06:16:05;;;;;;;3.00;2.70;;;14.40;99.90;;;;;;5454812;26;20675;-73
2024/04/13 06:18:31;;;;;;;2.80;2.58;;;14.40;99.90;;;;;;5455172;26;20327;-73
2024/04/13 06:21:00;;;;;;;2.47;2.38;;;14.40;99.90;;;;;;5454758;26;20367;-73
2024/04/13 06:23:26;;;;;;;2.70;2.60;;;14.40;99.90;;;;;;5454728;26;20220;-73
2024/04/13 06:26:01;;;;;;;2.85;2.47;;;14.40;99.90;;;;;;5454752;26;20451;-73
2024/04/13 06:28:30;;;;;;;2.90;2.70;;;14.50;99.90;;;;;;5453357;26;20372;-72
2024/04/13 06:30:58;;;;;;;2.58;2.47;;;14.60;99.90;;;;;;5454736;26;20836;-72
2024/04/13 06:33:24;;;;;;;2.80;2.58;;;14.70;99.90;;;;;;5455324;26;20263;-72
2024/04/13 06:35:53;;;;;;;2.50;2.40;;;14.80;99.90;;;;;;5454116;26;20236;-73
2024/04/13 06:38:26;;;;;;;3.00;2.83;;;14.70;99.90;;;;;;5455158;26;20220;-73
2024/04/13 06:40:58;;;;;;;2.92;2.72;;;14.70;99.90;;;;;;5453166;26;20223;-73
2024/04/13 06:43:34;;;;;;;2.75;2.55;;;14.80;99.90;;;;;;5455322;26;20220;-73
2024/04/13 06:46:00;;;;;;;3.92;2.58;;;14.80;99.90;;;;;;5454775;26;20678;-73
2024/04/13 06:48:28;;;;;;;3.05;2.50;;;14.80;99.90;;;;;;5454932;26;20539;-74
2024/04/13 06:51:00;;;;;;;4.28;3.03;;;14.80;99.90;;;;;;5454461;26;20271;-73
2024/04/13 06:53:29;;;;;;;2.60;2.40;;;14.80;99.90;;;;;;5453988;26;20570;-73
2024/04/13 06:55:56;;;;;;;2.83;2.55;;;14.90;99.90;;;;;;5454545;26;20405;-74
2024/04/13 06:58:26;;;;;;;4.13;2.58;;;15.00;99.90;;;;;;5454313;26;20216;-74
2024/04/13 07:00:58;;;;;;;2.92;2.60;;;15.00;99.90;;;;;;5454652;26;20208;-73
2024/04/13 07:03:27;;;;;;;2.38;2.17;;;15.00;99.90;;;;;;5454176;26;20373;-73
2024/04/13 07:05:57;;;;;;;2.72;2.42;;;15.10;99.90;;;;;;5454080;26;20288;-75
2024/04/13 07:08:26;;;;;;;2.63;2.42;;;15.10;99.90;;;;;;5454136;26;20224;-74
2024/04/13 07:10:55;;;;;;;2.65;2.40;;;15.10;99.90;;;;;;5453487;26;20236;-74
2024/04/13 07:13:24;;;;;;;3.53;2.90;;;15.10;99.90;;;;;;5453585;26;20278;-73
2024/04/13 07:15:52;;;;;;;6.82;2.58;;;15.20;99.90;;;;;;5454045;26;20783;-73
2024/04/13 07:18:23;;;;;;;2.85;2.65;;;15.20;99.90;;;;;;5454205;26;20224;-73
2024/04/13 07:20:49;;;;;;;2.80;2.70;;;15.30;99.90;;;;;;5454350;26;20729;-74
2024/04/13 07:23:18;;;;;;;4.05;2.80;;;15.40;99.90;;;;;;5454061;26;20228;-74
2024/04/13 07:25:44;;;;;;;4.03;3.10;;;15.50;99.90;;;;;;5454381;26;20254;-74
2024/04/13 07:28:14;;;;;;;3.00;2.80;;;15.50;99.90;;;;;;5454100;26;20232;-75
2024/04/13 07:30:40;;;;;;;2.97;2.70;;;15.60;99.90;;;;;;5453551;26;20551;-73
2024/04/13 07:33:08;;;;;;;3.08;2.88;;;15.70;99.90;;;;;;5454351;26;20261;-73
2024/04/13 07:35:37;;;;;;;2.85;2.65;;;15.70;99.90;;;;;;5453483;26;20224;-74
2024/04/13 07:38:11;;;;;;;3.17;2.97;;;15.80;99.90;;;;;;5454184;26;20715;-74
2024/04/13 07:40:38;;;;;;;4.30;3.25;;;15.80;99.90;;;;;;5453935;26;20539;-76
2024/04/13 07:43:07;;;;;;;3.22;2.95;;;16.00;99.90;;;;;;5453843;26;20220;-75
2024/04/13 07:45:33;;;;;;;2.67;2.58;;;16.00;99.90;;;;;;5453948;26;20224;-75
2024/04/13 07:48:01;;;;;;;5.32;3.45;;;16.10;99.90;;;;;;5453612;26;20257;-75
2024/04/13 07:50:27;;;;;;;3.20;2.80;;;16.20;99.90;;;;;;5454825;26;20722;-75
2024/04/13 07:52:58;;;;;;;3.17;2.88;;;16.20;99.90;;;;;;5453866;26;20268;-75
2024/04/13 07:55:25;;;;;;;3.65;2.75;;;16.30;99.90;;;;;;5454054;26;20341;-74
2024/04/13 07:58:20;;;;;;;2.72;2.63;;;16.40;99.90;;;;;;5452722;26;20232;-74
2024/04/13 08:00:47;;;;;;;3.50;3.20;;;16.50;99.90;;;;;;5453250;26;20254;-75
2024/04/13 08:03:16;;;;;;;5.32;3.60;;;16.50;99.90;;;;;;5453166;26;20328;-74
2024/04/13 08:05:47;;;;;;;3.83;3.10;;;16.60;99.90;;;;;;5453188;26;20283;-75
2024/04/13 08:08:19;;;;;;;6.20;3.22;;;16.70;99.90;;;;;;5453873;26;20262;-75
2024/04/13 08:10:51;;;;;;;3.65;3.45;;;16.70;99.90;;;;;;5453283;26;20262;-74
2024/04/13 08:13:20;;;;;;;5.20;3.45;;;16.80;99.90;;;;;;5453764;26;20270;-76
2024/04/13 08:15:46;;;;;;;2.97;2.80;;;16.90;99.90;;;;;;5453761;26;20683;-77
2024/04/13 08:18:15;;;;;;;5.82;3.40;;;16.90;99.90;;;;;;5453514;26;20216;-76
2024/04/13 08:20:41;;;;;;;3.92;3.50;;;17.00;99.90;;;;;;5453494;26;20224;-75
2024/04/13 08:23:09;;;;;;;5.65;3.58;;;17.10;99.90;;;;;;5453783;26;20262;-76
2024/04/13 08:25:38;;;;;;;3.50;3.20;;;17.20;99.90;;;;;;5453491;26;20336;-75
2024/04/13 08:28:12;;;;;;;3.72;3.53;;;17.30;99.90;;;;;;5453220;26;20262;-76
2024/04/13 08:30:38;;;;;;;3.53;3.22;;;17.30;99.90;;;;;;5453544;26;20282;-75
2024/04/13 08:33:07;;;;;;;3.30;3.10;;;17.40;99.90;;;;;;5453252;26;20215;-75
2024/04/13 08:35:33;;;;;;;3.80;3.50;;;17.50;99.90;;;;;;5453570;26;20223;-74
2024/04/13 08:38:01;;;;;;;5.25;3.85;;;17.60;99.90;;;;;;5452865;26;20615;-75
2024/04/13 08:40:27;;;;;;;5.72;5.18;;;17.60;99.90;;;;;;5453819;26;20216;-74
2024/04/13 08:43:10;;;;;;;8.40;7.70;;;17.60;99.90;;;;;;5453089;26;20272;-74
2024/04/13 08:45:36;;;;;;;7.82;7.13;;;17.70;99.90;;;;;;5453305;26;20258;-75
2024/04/13 08:48:05;;;;;;;6.75;6.18;;;17.90;99.90;;;;;;5453044;26;20279;-76
2024/04/13 08:50:33;;;;;;;6.32;5.97;;;18.00;99.90;;;;;;5452960;26;20562;-75
2024/04/13 08:53:02;;;;;;;6.20;5.80;;;18.00;99.90;;;;;;5452975;26;20224;-76
2024/04/13 08:55:28;;;;;;;5.68;5.38;;;18.20;99.90;;;;;;5452819;26;20258;-75
2024/04/13 08:58:06;;;;;;;7.22;4.78;;;18.20;99.90;;;;;;5452984;26;20212;-77
2024/04/13 09:00:38;;;;;;;4.45;4.13;;;18.30;99.90;;;;;;5452488;26;20258;-76
2024/04/13 09:03:10;;;;;;;4.82;4.13;;;18.40;99.90;;;;;;5451340;26;20220;-77
2024/04/13 09:05:38;;;;;;;5.40;4.15;;;18.50;99.90;;;;;;5452520;26;20250;-76
2024/04/13 09:08:07;;;;;;;4.05;3.80;;;18.50;99.90;;;;;;5452532;26;20220;-75
2024/04/13 09:10:38;;;;;;;7.63;7.03;;;18.70;99.90;;;;;;5452298;26;20215;-75
2024/04/13 09:13:09;;;;;;;5.93;5.32;;;18.70;99.90;;;;;;5452386;26;20271;-75
2024/04/13 09:15:40;;;;;;;4.90;4.60;;;18.80;99.90;;;;;;5452852;26;20549;-76
2024/04/13 09:18:09;;;;;;;4.30;3.90;;;18.90;99.90;;;;;;5452418;26;20211;-75
2024/04/13 09:20:35;;;;;;;4.05;3.63;;;18.90;99.90;;;;;;5452321;26;20231;-75
2024/04/13 09:23:05;;;;;;;6.07;3.90;;;19.00;99.90;;;;;;5452222;26;20220;-76
2024/04/13 09:25:33;;;;;;;3.53;3.25;;;19.10;99.90;;;;;;5452193;26;20220;-76
2024/04/13 09:28:03;;;;;;;4.72;4.30;;;19.10;99.90;;;;;;5452311;26;20244;-76
2024/04/13 09:30:32;;;;;;;3.88;3.58;;;19.20;99.90;;;;;;5452038;26;20223;-76
2024/04/13 09:33:06;;;;;;;4.25;3.90;;;19.30;99.90;;;;;;5451886;26;20694;-76
2024/04/13 09:35:32;;;;;;;4.30;3.95;;;19.40;99.90;;;;;;5451831;26;20547;-76
2024/04/13 09:38:07;;;;;;;5.95;5.65;;;19.50;99.90;;;;;;5451923;26;20239;-74
2024/04/13 09:40:36;;;;;;;5.25;4.75;;;19.60;99.90;;;;;;5451899;26;20216;-76
2024/04/13 09:43:05;;;;;;;7.07;5.13;;;19.70;99.90;;;;;;5451955;26;20232;-76
2024/04/13 09:45:38;;;;;;;5.07;4.43;;;19.80;99.90;;;;;;5452258;26;20258;-75
2024/04/13 09:48:11;;;;;;;3.83;3.45;;;20.00;99.90;;;;;;5452029;26;20224;-75
2024/04/13 09:50:49;;;;;;;5.47;3.30;;;20.00;99.90;;;;;;5452135;26;20510;-75
2024/04/13 09:53:20;;;;;;;3.92;3.60;;;20.20;99.90;;;;;;5451927;26;20262;-76
2024/04/13 09:55:46;;;;;;;4.38;4.07;;;20.30;99.90;;;;;;5451819;26;20228;-76
2024/04/13 09:58:16;;;;;;;5.20;4.38;;;20.40;99.90;;;;;;5451536;26;20227;-75
2024/04/13 10:00:51;;;;;;;5.18;3.92;;;20.60;99.90;;;;;;5452006;26;20260;-75
2024/04/13 10:03:20;;;;;;;8.90;4.75;;;20.60;99.90;;;;;;5452049;26;20289;-75
2024/04/13 10:05:46;;;;;;;4.88;4.60;;;20.80;99.90;;;;;;5451339;26;20588;-76
2024/04/13 10:08:16;;;;;;;5.03;4.45;;;20.90;99.90;;;;;;5451592;26;20224;-75
2024/04/13 10:10:46;;;;;;;5.68;5.32;;;21.00;99.90;;;;;;5452274;26;20219;-76
2024/04/13 10:13:26;;;;;;;4.80;4.57;;;21.10;99.90;;;;;;5451405;26;20232;-76
2024/04/13 10:16:00;;;;;;;6.25;5.57;;;21.20;99.90;;;;;;5454523;26;20211;-76
2024/04/13 10:18:28;;;;;;;5.47;5.18;;;21.20;99.90;;;;;;5454616;26;20283;-76
2024/04/13 10:20:56;;;;;;;5.47;5.15;;;21.30;99.90;;;;;;5455023;26;20722;-76
2024/04/13 10:23:24;;;;;;;5.80;5.40;;;21.40;99.90;;;;;;5455276;26;20272;-75
2024/04/13 10:25:56;;;;;;;5.78;5.32;;;21.50;99.90;;;;;;5455255;26;20283;-76
2024/04/13 10:28:30;;;;;;;6.70;6.10;;;21.60;99.90;;;;;;5455084;26;20683;-76
2024/04/13 10:31:02;;;;;;;7.13;5.13;;;21.70;99.90;;;;;;5454821;26;20212;-76
2024/04/13 10:33:32;;;;;;;6.03;5.00;;;21.80;99.90;;;;;;5455028;26;20254;-76
2024/04/13 10:36:07;;;;;;;5.70;5.30;;;21.90;99.90;;;;;;5454156;26;20316;-76
2024/04/13 10:38:38;;;;;;;6.75;6.05;;;22.10;99.90;;;;;;5454986;26;20348;-76
2024/04/13 10:41:05;;;;;;;5.32;5.07;;;22.10;99.90;;;;;;5423955;26;20224;-76
2024/04/13 10:43:34;;;;;;;6.43;5.10;;;22.20;99.90;;;;;;5454775;26;20271;-76
2024/04/13 10:46:12;;;;;;;5.95;5.50;;;22.40;99.90;;;;;;5454638;26;20217;-76
2024/04/13 10:48:47;;;;;;;5.78;5.35;;;22.50;99.90;;;;;;5454522;26;20216;-77
2024/04/13 10:51:14;;;;;;;5.80;5.40;;;22.60;99.90;;;;;;5454501;26;20590;-76
2024/04/13 10:53:45;;;;;;;5.80;5.15;;;22.70;99.90;;;;;;5454757;26;20232;-77
2024/04/13 10:56:16;;;;;;;5.25;4.82;;;22.80;99.90;;;;;;5454419;26;20224;-76
2024/04/13 10:58:45;;;;;;;6.18;5.68;;;22.90;99.90;;;;;;5454594;26;20349;-76
2024/04/13 11:01:14;;;;;;;6.18;5.68;;;23.00;99.90;;;;;;5454502;26;20224;-76
2024/04/13 11:03:43;;;;;;;5.82;5.30;;;23.20;99.90;;;;;;5454421;26;20240;-77
2024/04/13 11:06:10;;;;;;;7.20;4.85;;;23.30;99.90;;;;;;5454158;26;20224;-76
2024/04/13 11:08:38;;;;;;;7.90;5.53;;;23.50;99.90;;;;;;5454559;26;20224;-77
2024/04/13 11:11:04;;;;;;;7.07;5.32;;;23.50;99.90;;;;;;5454626;26;20223;-76
2024/04/13 11:13:33;;;;;;;5.70;5.25;;;23.60;99.90;;;;;;5454352;26;20270;-77
2024/04/13 11:15:59;;;;;;;5.80;5.18;;;23.70;99.90;;;;;;5454430;26;20585;-77
2024/04/13 11:18:30;;;;;;;5.38;4.97;;;23.80;99.90;;;;;;5454758;26;20280;-76
2024/04/13 11:21:01;;;;;;;5.13;4.72;;;23.80;99.90;;;;;;5454690;26;20216;-77
2024/04/13 11:23:30;;;;;;;6.75;5.07;;;23.90;99.90;;;;;;5454586;26;20247;-77
2024/04/13 11:25:56;;;;;;;3.90;3.70;;;24.00;99.90;;;;;;5453517;26;20796;-78
2024/04/13 11:28:25;;;;;;;4.95;4.47;;;24.10;99.90;;;;;;5455096;26;20258;-77
2024/04/13 11:30:55;;;;;;;5.97;4.80;;;24.20;99.90;;;;;;5454722;26;20215;-76
2024/04/13 11:33:24;;;;;;;5.20;4.85;;;24.20;99.90;;;;;;5454282;26;20235;-76
2024/04/13 11:35:56;;;;;;;6.57;4.95;;;24.30;99.90;;;;;;5453982;26;20326;-76
2024/04/13 11:38:25;;;;;;;4.57;4.38;;;24.30;99.90;;;;;;5454301;26;20766;-76
2024/04/13 11:40:51;;;;;;;4.93;4.60;;;24.30;99.90;;;;;;5454129;26;20652;-77
2024/04/13 11:43:24;;;;;;;4.78;4.38;;;24.30;99.90;;;;;;5454280;26;20284;-76
2024/04/13 11:45:50;;;;;;;5.07;4.10;;;24.30;99.90;;;;;;5454205;26;20745;-77
2024/04/13 11:48:19;;;;;;;5.05;4.75;;;24.30;99.90;;;;;;5452489;26;20361;-75
2024/04/13 11:50:46;;;;;;;5.53;3.70;;;24.40;99.90;;;;;;5453923;26;20330;-78
2024/04/13 11:53:18;;;;;;;6.07;3.88;;;24.60;99.90;;;;;;5453855;26;20224;-76
2024/04/13 11:55:47;;;;;;;3.88;3.55;;;24.70;99.90;;;;;;5453984;26;20707;-77
2024/04/13 11:58:29;;;;;;;3.95;3.75;;;24.80;99.90;;;;;;5454305;26;20625;-76
2024/04/13 12:00:55;;;;;;;3.33;3.13;;;24.80;99.90;;;;;;5454238;26;20212;-77
2024/04/13 12:03:24;;;;;;;3.60;3.30;;;24.90;99.90;;;;;;5454076;26;20224;-76
2024/04/13 12:05:50;;;;;;;3.60;3.40;;;24.90;99.90;;;;;;5453709;26;20271;-78
2024/04/13 12:08:21;;;;;;;3.45;3.20;;;25.00;99.90;;;;;;5453904;26;20212;-76
2024/04/13 12:10:47;;;;;;;3.47;3.28;;;25.10;99.90;;;;;;5453805;26;20556;-76
2024/04/13 12:13:16;;;;;;;3.47;3.28;;;25.10;99.90;;;;;;5453602;26;20250;-76
2024/04/13 12:15:47;;;;;;;4.82;3.88;;;25.10;99.90;;;;;;5453956;26;20211;-77
2024/04/13 12:18:15;;;;;;;4.35;3.95;;;25.20;99.90;;;;;;5453731;26;20706;-76
2024/04/13 12:20:41;;;;;;;5.45;3.60;;;25.20;99.90;;;;;;5453719;26;20215;-76
2024/04/13 12:23:15;;;;;;;5.32;3.33;;;25.30;99.90;;;;;;5453587;26;20224;-76
2024/04/13 12:25:43;;;;;;;4.45;3.80;;;25.30;99.90;;;;;;5454079;26;20220;-76
2024/04/13 12:28:12;;;;;;;3.97;3.60;;;25.40;99.90;;;;;;5453944;26;20711;-76
2024/04/13 12:30:39;;;;;;;3.72;3.53;;;25.40;99.90;;;;;;5453573;26;20216;-78
2024/04/13 12:33:08;;;;;;;4.35;3.47;;;25.50;99.90;;;;;;5454121;26;20220;-78
2024/04/13 12:35:34;;;;;;;4.18;3.30;;;25.60;99.90;;;;;;5453791;26;20695;-78
2024/04/13 12:38:03;;;;;;;3.70;3.50;;;25.60;99.90;;;;;;5451260;26;20405;-76
2024/04/13 12:40:29;;;;;;;4.28;4.00;;;25.90;99.90;;;;;;5453391;26;20220;-76
2024/04/13 12:43:01;;;;;;;4.22;3.97;;;26.00;99.90;;;;;;5453253;26;20258;-77
2024/04/13 12:45:27;;;;;;;3.75;3.53;;;26.00;99.90;;;;;;5453803;26;20255;-78
2024/04/13 12:47:55;;;;;;;3.35;3.13;;;26.10;99.90;;;;;;5453241;26;20254;-77
2024/04/13 12:50:21;;;;;;;3.70;3.40;;;26.00;99.90;;;;;;5453432;26;20224;-77
2024/04/13 12:52:50;;;;;;;3.63;3.33;;;25.90;99.90;;;;;;5453393;26;20251;-77
2024/04/13 12:55:18;;;;;;;4.43;3.50;;;26.00;99.90;;;;;;5453115;26;20223;-77
2024/04/13 12:57:47;;;;;;;6.43;3.45;;;26.00;99.90;;;;;;5453061;26;20227;-76